createdAt,value
2023-11-27T00:03:21.330Z,97648.59
2023-11-27T00:08:24.508Z,97639.38
2023-11-27T00:13:27.831Z,97634.06
2023-11-27T00:18:32.292Z,97626.78
2023-11-27T00:23:35.443Z,97623.47
2023-11-27T00:28:38.932Z,97611.38
2023-11-27T00:33:43.474Z,97605.78
2023-11-27T00:38:46.622Z,97602.63
2023-11-27T00:43:52.064Z,97605.50
2023-11-27T00:48:56.606Z,97592.97
2023-11-27T00:53:59.788Z,97591.63
2023-11-27T00:59:02.928Z,97582.16
2023-11-27T01:04:08.033Z,97580.03
2023-11-27T01:09:12.878Z,97573.63
2023-11-27T01:14:16.605Z,97573.38
2023-11-27T01:19:21.174Z,97568.97
2023-11-27T01:24:24.671Z,97555.47
2023-11-27T01:29:27.895Z,97557.00
2023-11-27T01:34:33.790Z,97533.84
2023-11-27T01:39:37.705Z,97526.75
2023-11-27T01:44:41.374Z,97514.34
2023-11-27T01:49:47.716Z,97508.56
2023-11-27T01:54:51.361Z,97500.47
2023-11-27T01:59:58.010Z,97493.94
2023-11-27T02:05:02.570Z,97482.31
2023-11-27T02:10:07.563Z,97484.63
2023-11-27T02:15:12.982Z,97467.34
2023-11-27T02:20:17.715Z,97463.94
2023-11-27T02:25:22.255Z,97453.56
2023-11-27T02:30:25.896Z,97448.16
2023-11-27T02:35:31.702Z,97443.09
2023-11-27T02:40:37.644Z,97440.50
2023-11-27T02:45:42.470Z,97430.50
2023-11-27T02:50:45.633Z,97424.50
2023-11-27T02:55:50.114Z,97417.56
2023-11-27T03:00:53.318Z,97419.34
2023-11-27T03:05:56.478Z,97415.03
2023-11-27T03:11:00.985Z,97413.78
2023-11-27T03:16:04.541Z,97414.31
2023-11-27T03:21:08.816Z,97407.63
2023-11-27T03:26:13.950Z,97391.13
2023-11-27T03:31:17.416Z,97385.78
2023-11-27T03:36:20.598Z,97380.84
2023-11-27T03:41:25.331Z,97376.00
2023-11-27T03:46:28.525Z,97384.06
2023-11-27T03:51:32.445Z,97382.94
2023-11-27T03:56:37.002Z,97376.00
2023-11-27T04:01:40.210Z,97371.72
2023-11-27T04:06:46.431Z,97377.00
2023-11-27T04:11:51.100Z,97375.19
2023-11-27T04:16:54.350Z,97377.97
2023-11-27T04:21:57.572Z,97366.22
2023-11-27T04:27:02.562Z,97364.09
2023-11-27T04:32:06.468Z,97355.03
2023-11-27T04:37:12.040Z,97347.75
2023-11-27T04:42:16.622Z,97342.47
2023-11-27T04:47:19.861Z,97335.88
2023-11-27T04:52:24.143Z,97327.81
2023-11-27T04:57:28.824Z,97319.88
2023-11-27T05:02:32.064Z,97322.06
2023-11-27T05:07:35.315Z,97312.75
2023-11-27T05:12:40.504Z,97309.63
2023-11-27T05:17:43.782Z,97307.81
2023-11-27T05:22:47.118Z,97298.91
2023-11-27T05:27:51.695Z,97294.97
2023-11-27T05:32:54.948Z,97290.53
2023-11-27T05:37:58.255Z,97279.97
2023-11-27T05:43:06.492Z,97276.44
2023-11-27T05:48:10.036Z,97270.28
2023-11-27T05:53:13.581Z,97269.03
2023-11-27T05:58:18.160Z,97260.22
2023-11-27T06:03:21.371Z,97260.69
2023-11-27T06:08:24.557Z,97261.47
2023-11-27T06:13:29.099Z,97257.06
2023-11-27T06:18:32.473Z,97255.56
2023-11-27T06:23:35.620Z,97241.09
2023-11-27T06:28:40.234Z,97230.44
2023-11-27T06:33:43.573Z,97225.88
2023-11-27T06:38:47.197Z,97225.16
2023-11-27T06:43:51.746Z,97227.25
2023-11-27T06:48:54.870Z,97216.81
2023-11-27T06:53:57.990Z,97212.19
2023-11-27T06:59:02.690Z,97209.28
2023-11-27T07:04:06.224Z,97210.72
2023-11-27T07:09:11.990Z,97202.41
2023-11-27T07:14:16.838Z,97195.31
2023-11-27T07:19:20.093Z,97197.06
2023-11-27T07:24:23.292Z,97194.06
2023-11-27T07:29:28.366Z,97189.09
2023-11-27T07:34:31.591Z,97180.28
2023-11-27T07:39:34.773Z,97179.00
2023-11-27T07:44:39.289Z,97177.72
2023-11-27T07:49:42.395Z,97158.75
2023-11-27T07:54:47.290Z,97158.94
2023-11-27T07:59:52.990Z,97140.25
2023-11-27T08:04:56.652Z,97138.31
2023-11-27T08:09:59.830Z,97126.94
2023-11-27T08:15:07.269Z,97117.13
2023-11-27T08:20:12.606Z,97110.25
2023-11-27T08:25:18.450Z,97107.31
2023-11-27T08:30:25.583Z,97102.19
2023-11-27T08:35:28.993Z,97095.38
2023-11-27T08:40:32.276Z,97092.38
2023-11-27T08:45:36.889Z,97098.34
2023-11-27T08:50:40.267Z,97076.53
2023-11-27T08:55:44.302Z,97065.91
2023-11-27T09:00:49.526Z,97061.97
2023-11-27T09:05:52.655Z,97058.66
2023-11-27T09:10:55.925Z,97054.03
2023-11-27T09:16:01.229Z,97046.81
2023-11-27T09:21:04.833Z,97051.06
2023-11-27T09:26:08.887Z,97036.78
2023-11-27T09:31:13.466Z,97018.97
2023-11-27T09:36:17.481Z,97004.44
2023-11-27T09:41:20.627Z,96991.72
2023-11-27T09:46:26.502Z,96981.69
2023-11-27T09:51:33.234Z,96973.13
2023-11-27T09:56:38.353Z,96960.16
2023-11-27T10:01:44.392Z,96965.47
2023-11-27T10:06:49.804Z,96956.19
2023-11-27T10:11:53.065Z,96939.88
2023-11-27T10:17:00.634Z,96917.72
2023-11-27T10:22:03.869Z,96871.44
2023-11-27T10:27:10.338Z,96865.22
2023-11-27T10:32:15.365Z,96858.41
2023-11-27T10:37:18.686Z,96851.06
2023-11-27T10:42:27.450Z,96848.44
2023-11-27T10:47:33.328Z,96828.00
2023-11-27T10:52:37.078Z,96814.53
2023-11-27T10:57:40.847Z,96796.56
2023-11-27T11:02:52.297Z,96777.09
2023-11-27T11:07:57.266Z,96767.84
2023-11-27T11:13:03.478Z,96737.25
2023-11-27T11:18:16.083Z,96736.75
2023-11-27T11:23:29.508Z,96723.66
2023-11-27T11:28:43.438Z,96707.31
2023-11-27T11:33:48.901Z,96682.84
2023-11-27T11:38:54.005Z,96676.88
2023-11-27T11:43:59.784Z,96660.22
2023-11-27T11:49:05.563Z,96636.81
2023-11-27T11:54:11.012Z,96635.00
2023-11-27T11:59:17.182Z,96625.84
2023-11-27T12:04:23.372Z,96624.72
2023-11-27T12:09:26.640Z,96622.69
2023-11-27T12:14:33.689Z,96609.28
2023-11-27T12:19:38.317Z,96593.00
2023-11-27T12:24:47.919Z,96580.59
2023-11-27T12:29:51.198Z,96580.75
2023-11-27T12:34:55.677Z,96578.13
2023-11-27T12:39:59.458Z,96581.38
2023-11-27T12:45:07.580Z,96566.06
2023-11-27T12:50:24.103Z,96564.47
2023-11-27T12:55:32.236Z,96553.59
2023-11-27T13:00:35.520Z,96549.41
2023-11-27T13:05:39.937Z,96547.84
2023-11-27T13:10:44.363Z,96534.03
2023-11-27T13:15:47.578Z,96522.03
2023-11-27T13:20:55.306Z,96501.13
2023-11-27T13:26:11.415Z,96494.94
2023-11-27T13:31:17.378Z,96488.84
2023-11-27T13:36:22.869Z,96476.81
2023-11-27T13:41:31.276Z,96468.78
2023-11-27T13:46:34.859Z,96464.59
2023-11-27T13:51:39.368Z,96455.13
2023-11-27T13:56:42.516Z,96449.44
2023-11-27T14:01:45.725Z,96436.84
2023-11-27T14:06:52.316Z,96425.00
2023-11-27T14:11:58.046Z,96420.66
2023-11-27T14:17:20.078Z,96406.91
2023-11-27T14:22:41.578Z,96382.75
2023-11-27T14:28:00.687Z,96387.69
2023-11-27T14:33:04.994Z,96368.25
2023-11-27T14:38:09.475Z,96351.63
2023-11-27T14:43:14.151Z,96353.16
2023-11-27T14:48:21.114Z,96332.66
2023-11-27T14:53:25.775Z,96317.53
2023-11-27T14:58:28.878Z,96303.00
2023-11-27T15:03:32.095Z,96306.09
2023-11-27T15:08:36.661Z,96297.38
2023-11-27T15:13:45.245Z,96282.06
2023-11-27T15:18:48.592Z,96276.03
2023-11-27T15:23:53.055Z,96263.16
2023-11-27T15:28:56.203Z,96260.16
2023-11-27T15:33:59.712Z,96241.75
2023-11-27T15:39:16.729Z,96232.22
2023-11-27T15:44:19.897Z,96221.09
2023-11-27T15:49:23.089Z,96204.06
2023-11-27T15:54:27.529Z,96195.66
2023-11-27T15:59:30.592Z,96187.13
2023-11-27T16:04:33.755Z,96177.41
2023-11-27T16:09:40.461Z,96167.16
2023-11-27T16:14:43.994Z,96162.03
2023-11-27T16:19:47.075Z,96145.94
2023-11-27T16:24:51.509Z,96141.41
2023-11-27T16:29:55.221Z,96131.91
2023-11-27T16:35:00.573Z,96120.47
2023-11-27T16:40:15.827Z,96113.22
2023-11-27T16:45:19.781Z,96103.97
2023-11-27T16:50:26.059Z,96096.69
2023-11-27T16:55:32.921Z,96090.47
2023-11-27T17:00:38.286Z,96088.75
2023-11-27T17:05:41.855Z,96071.03
2023-11-27T17:10:51.503Z,96068.91
2023-11-27T17:15:54.828Z,96069.78
2023-11-27T17:20:57.969Z,96066.78
2023-11-27T17:26:02.517Z,96058.34
2023-11-27T17:31:06.689Z,96055.84
2023-11-27T17:36:10.745Z,96058.56
2023-11-27T17:41:17.677Z,96062.22
2023-11-27T17:46:23.185Z,96051.38
2023-11-27T17:51:26.453Z,96045.78
2023-11-27T17:56:37.247Z,96034.06
2023-11-27T18:01:45.156Z,96032.28
2023-11-27T18:06:50.010Z,96024.56
2023-11-27T18:11:56.065Z,96016.34
2023-11-27T18:17:00.512Z,96012.88
2023-11-27T18:22:04.036Z,96008.09
2023-11-27T18:27:08.977Z,95993.97
2023-11-27T18:32:14.088Z,95991.75
2023-11-27T18:37:17.286Z,95985.69
2023-11-27T18:42:36.392Z,95971.91
2023-11-27T18:47:44.543Z,95958.81
2023-11-27T18:52:48.907Z,95948.56
2023-11-27T18:57:53.461Z,95948.84
2023-11-27T19:02:56.704Z,95938.19
2023-11-27T19:07:59.889Z,95936.13
2023-11-27T19:13:09.155Z,95920.56
2023-11-27T19:18:12.383Z,95919.13
2023-11-27T19:23:15.562Z,95907.47
2023-11-27T19:28:20.749Z,95909.56
2023-11-27T19:33:23.876Z,95890.72
2023-11-27T19:38:27.607Z,95884.38
2023-11-27T19:43:32.618Z,95869.75
2023-11-27T19:48:39.988Z,95863.16
2023-11-27T19:53:43.546Z,95844.56
2023-11-27T19:58:48.088Z,95842.72
2023-11-27T20:03:51.730Z,95835.75
2023-11-27T20:08:55.673Z,95830.53
2023-11-27T20:14:00.502Z,95824.56
2023-11-27T20:19:06.258Z,95824.63
2023-11-27T20:24:09.924Z,95820.75
2023-11-27T20:29:14.944Z,95820.31
2023-11-27T20:34:18.108Z,95822.38
2023-11-27T20:39:21.251Z,95814.91
2023-11-27T20:44:25.750Z,95805.53
2023-11-27T20:49:28.917Z,95802.47
2023-11-27T20:54:32.486Z,95805.69
2023-11-27T20:59:40.382Z,95795.63
2023-11-27T21:04:43.550Z,95795.66
2023-11-27T21:09:46.740Z,95787.66
2023-11-27T21:14:52.095Z,95787.13
2023-11-27T21:19:59.969Z,95778.28
2023-11-27T21:25:03.661Z,95778.59
2023-11-27T21:30:09.712Z,95765.16
2023-11-27T21:35:13.264Z,95760.13
2023-11-27T21:40:17.471Z,95765.97
2023-11-27T21:45:21.987Z,95757.38
2023-11-27T21:50:26.141Z,95753.81
2023-11-27T21:55:30.493Z,95756.03
2023-11-27T22:00:35.292Z,95754.63
2023-11-27T22:05:38.581Z,95748.38
2023-11-27T22:10:41.779Z,95744.56
2023-11-27T22:15:46.352Z,95741.34
2023-11-27T22:20:49.665Z,95733.22
2023-11-27T22:25:53.251Z,95735.97
2023-11-27T22:30:57.778Z,95735.31
2023-11-27T22:36:00.893Z,95731.38
2023-11-27T22:41:04.056Z,95722.94
2023-11-27T22:46:10.395Z,95724.59
2023-11-27T22:51:14.499Z,95721.03
2023-11-27T22:56:21.798Z,95717.75
2023-11-27T23:01:26.408Z,95712.53
2023-11-27T23:06:36.700Z,95714.00
2023-11-27T23:11:47.333Z,95714.84
2023-11-27T23:16:51.909Z,95703.09
2023-11-27T23:21:55.159Z,95695.56
2023-11-27T23:26:58.313Z,95697.41
2023-11-27T23:32:05.066Z,95685.34
2023-11-27T23:37:09.695Z,95680.69
2023-11-27T23:42:12.828Z,95680.34
2023-11-27T23:47:17.386Z,95673.97
2023-11-27T23:52:20.527Z,95661.03
2023-11-27T23:57:23.685Z,95661.19
